createdAt,value
2019-02-06T00:01:17.668Z,0.30
2019-02-06T00:03:47.500Z,0.30
2019-02-06T00:06:17.023Z,0.30
2019-02-06T00:08:46.469Z,0.30
2019-02-06T00:11:16.109Z,0.30
2019-02-06T00:13:46.191Z,0.30
2019-02-06T00:16:15.924Z,0.30
2019-02-06T00:18:45.336Z,0.30
2019-02-06T00:21:14.905Z,0.40
2019-02-06T00:23:44.612Z,0.30
2019-02-06T00:26:14.708Z,0.30
2019-02-06T00:28:44.246Z,0.30
2019-02-06T00:31:13.858Z,0.40
2019-02-06T00:33:46.462Z,0.40
2019-02-06T00:36:15.955Z,0.30
2019-02-06T00:38:45.822Z,0.40
2019-02-06T00:41:15.242Z,0.40
2019-02-06T00:43:45.041Z,0.40
2019-02-06T00:46:14.573Z,0.30
2019-02-06T00:48:44.022Z,0.40
2019-02-06T00:51:13.992Z,0.40
2019-02-06T00:53:43.400Z,0.40
2019-02-06T00:56:13.178Z,0.40
2019-02-06T00:58:42.620Z,0.40
2019-02-06T01:01:12.164Z,0.40
2019-02-06T01:03:41.911Z,0.40
2019-02-06T01:06:11.342Z,0.40
2019-02-06T01:08:40.798Z,0.40
2019-02-06T01:11:10.561Z,0.40
2019-02-06T01:13:39.997Z,0.40
2019-02-06T01:16:09.529Z,0.40
2019-02-06T01:18:39.170Z,0.40
2019-02-06T01:21:08.651Z,0.40
2019-02-06T01:23:38.047Z,0.40
2019-02-06T01:26:07.693Z,0.40
2019-02-06T01:28:37.175Z,0.50
2019-02-06T01:31:12.864Z,0.50
2019-02-06T01:33:42.424Z,0.50
2019-02-06T01:36:11.878Z,0.50
2019-02-06T01:38:41.822Z,0.40
2019-02-06T01:41:11.260Z,0.40
2019-02-06T01:43:41.233Z,0.50
2019-02-06T01:46:10.769Z,0.40
2019-02-06T01:48:40.653Z,0.50
2019-02-06T01:51:10.241Z,0.50
2019-02-06T01:53:40.089Z,0.50
2019-02-06T01:56:09.563Z,0.40
2019-02-06T01:58:39.468Z,0.40
2019-02-06T02:01:09.045Z,0.50
2019-02-06T02:03:39.110Z,0.50
2019-02-06T02:06:09.033Z,0.40
2019-02-06T02:08:42.281Z,0.40
2019-02-06T02:11:11.803Z,0.50
2019-02-06T02:13:41.467Z,0.40
2019-02-06T02:16:10.923Z,0.50
2019-02-06T02:18:40.363Z,0.40
2019-02-06T02:21:10.198Z,0.40
2019-02-06T02:23:40.368Z,0.40
2019-02-06T02:26:09.959Z,0.40
2019-02-06T02:28:39.639Z,0.40
2019-02-06T02:31:09.381Z,0.50
2019-02-06T02:33:39.385Z,0.40
2019-02-06T02:36:16.110Z,0.50
2019-02-06T02:38:42.792Z,0.40
2019-02-06T02:41:13.043Z,0.50
2019-02-06T02:43:42.867Z,0.50
2019-02-06T02:46:12.309Z,0.50
2019-02-06T02:48:41.792Z,0.50
2019-02-06T02:51:11.749Z,0.60
2019-02-06T02:53:41.221Z,0.50
2019-02-06T02:56:10.924Z,0.60
2019-02-06T02:58:40.518Z,0.60
2019-02-06T03:01:24.147Z,0.60
2019-02-06T03:04:03.946Z,0.50
2019-02-06T03:06:33.453Z,0.60
2019-02-06T03:09:02.902Z,0.70
2019-02-06T03:11:32.815Z,0.60
2019-02-06T03:14:02.261Z,0.70
2019-02-06T03:16:32.161Z,0.70
2019-02-06T03:19:01.659Z,0.70
2019-02-06T03:21:31.388Z,0.60
2019-02-06T03:24:00.869Z,0.70
2019-02-06T03:26:30.284Z,0.70
2019-02-06T03:29:00.058Z,0.70
2019-02-06T03:31:29.791Z,0.70
2019-02-06T03:33:59.583Z,0.70
2019-02-06T03:36:39.789Z,0.70
2019-02-06T03:39:00.197Z,0.70
2019-02-06T03:41:30.005Z,0.70
2019-02-06T03:43:59.445Z,0.70
2019-02-06T03:46:29.490Z,0.70
2019-02-06T03:48:59.588Z,0.70
2019-02-06T03:51:29.126Z,0.70
2019-02-06T03:53:58.566Z,0.80
2019-02-06T03:56:28.370Z,0.80
2019-02-06T03:58:57.876Z,0.80
2019-02-06T04:01:27.806Z,0.80
2019-02-06T04:03:57.286Z,0.80
2019-02-06T04:06:27.058Z,0.80
2019-02-06T04:08:56.520Z,0.80
2019-02-06T04:11:25.953Z,0.90
2019-02-06T04:13:55.662Z,0.90
2019-02-06T04:16:25.392Z,0.90
2019-02-06T04:18:55.038Z,0.90
2019-02-06T04:21:24.463Z,0.90
2019-02-06T04:23:54.004Z,0.90
2019-02-06T04:26:23.764Z,0.90
2019-02-06T04:28:53.211Z,0.90
2019-02-06T04:31:23.332Z,0.90
2019-02-06T04:33:52.760Z,0.90
2019-02-06T04:36:22.195Z,0.90
2019-02-06T04:38:52.055Z,0.90
2019-02-06T04:41:21.504Z,0.90
2019-02-06T04:43:51.346Z,0.90
2019-02-06T04:46:20.754Z,0.90
2019-02-06T04:48:50.270Z,1.00
2019-02-06T04:51:19.938Z,1.00
2019-02-06T04:53:49.403Z,0.90
2019-02-06T04:56:19.255Z,0.90
2019-02-06T04:58:48.761Z,0.90
2019-02-06T05:01:18.935Z,0.90
2019-02-06T05:03:48.374Z,1.00
2019-02-06T05:06:17.728Z,0.90
2019-02-06T05:08:47.434Z,0.90
2019-02-06T05:11:16.870Z,1.00
2019-02-06T05:13:46.399Z,1.00
2019-02-06T05:16:16.173Z,1.00
2019-02-06T05:18:45.636Z,0.90
2019-02-06T05:21:15.153Z,0.90
2019-02-06T05:23:44.760Z,1.00
2019-02-06T05:26:14.243Z,1.00
2019-02-06T05:28:43.724Z,1.00
2019-02-06T05:31:13.713Z,1.00
2019-02-06T05:33:43.198Z,0.90
2019-02-06T05:36:13.158Z,0.90
2019-02-06T05:38:42.596Z,1.00
2019-02-06T05:41:12.315Z,0.90
2019-02-06T05:43:41.786Z,1.00
2019-02-06T05:46:11.633Z,1.00
2019-02-06T05:48:41.154Z,1.00
2019-02-06T05:51:10.608Z,1.00
2019-02-06T05:53:40.296Z,1.10
2019-02-06T05:56:09.704Z,1.10
2019-02-06T05:58:39.212Z,1.10
2019-02-06T06:01:09.039Z,1.20
2019-02-06T06:03:38.553Z,1.10
2019-02-06T06:06:11.252Z,1.10
2019-02-06T06:08:39.509Z,1.20
2019-02-06T06:11:08.943Z,1.10
2019-02-06T06:13:38.372Z,1.20
2019-02-06T06:16:08.243Z,1.10
2019-02-06T06:18:37.782Z,1.10
2019-02-06T06:21:07.710Z,1.20
2019-02-06T06:23:37.194Z,1.20
2019-02-06T06:26:07.085Z,1.20
2019-02-06T06:28:36.603Z,1.20
2019-02-06T06:31:06.989Z,1.20
2019-02-06T06:33:36.554Z,1.20
2019-02-06T06:36:06.040Z,1.20
2019-02-06T06:38:35.480Z,1.30
2019-02-06T06:41:05.455Z,1.30
2019-02-06T06:43:34.850Z,1.20
2019-02-06T06:46:04.717Z,1.30
2019-02-06T06:48:34.920Z,1.30
2019-02-06T06:51:04.370Z,1.30
2019-02-06T06:53:33.811Z,1.30
2019-02-06T06:56:03.610Z,1.30
2019-02-06T06:58:33.032Z,1.30
2019-02-06T07:01:02.586Z,1.30
2019-02-06T07:03:32.446Z,1.30
2019-02-06T07:06:02.421Z,1.30
2019-02-06T07:08:31.857Z,1.30
2019-02-06T07:11:01.718Z,1.30
2019-02-06T07:13:31.418Z,1.20
2019-02-06T07:16:01.228Z,1.20
2019-02-06T07:18:30.704Z,1.20
2019-02-06T07:21:01.655Z,1.30
2019-02-06T07:23:31.263Z,1.30
2019-02-06T07:26:00.920Z,1.20
2019-02-06T07:28:30.323Z,1.30
2019-02-06T07:30:59.868Z,1.30
2019-02-06T07:33:29.561Z,1.40
2019-02-06T07:35:59.019Z,1.40
2019-02-06T07:38:28.521Z,1.40
2019-02-06T07:40:58.139Z,1.40
2019-02-06T07:43:27.735Z,1.40
2019-02-06T07:45:57.619Z,1.40
2019-02-06T07:48:27.079Z,1.40
2019-02-06T07:50:56.557Z,1.50
2019-02-06T07:53:26.271Z,1.50
2019-02-06T07:55:55.783Z,1.50
2019-02-06T07:58:25.364Z,1.50
2019-02-06T08:00:54.969Z,1.60
2019-02-06T08:03:24.422Z,1.70
2019-02-06T08:05:53.963Z,1.80
2019-02-06T08:08:35.288Z,1.80
2019-02-06T08:10:54.763Z,1.90
2019-02-06T08:13:24.208Z,2.00
2019-02-06T08:15:53.623Z,2.10
2019-02-06T08:18:23.364Z,2.20
2019-02-06T08:20:52.823Z,2.10
2019-02-06T08:23:22.312Z,2.30
2019-02-06T08:25:52.067Z,2.30
2019-02-06T08:28:21.675Z,2.20
2019-02-06T08:30:51.541Z,2.20
2019-02-06T08:33:21.060Z,2.10
2019-02-06T08:35:50.507Z,2.20
2019-02-06T08:38:20.043Z,2.30
2019-02-06T08:40:49.558Z,2.30
2019-02-06T08:43:18.988Z,2.40
2019-02-06T08:45:48.710Z,2.50
2019-02-06T08:48:18.166Z,2.60
2019-02-06T08:50:47.595Z,2.60
2019-02-06T08:53:17.260Z,2.60
2019-02-06T08:55:46.837Z,2.80
2019-02-06T08:58:16.342Z,2.90
2019-02-06T09:00:46.294Z,3.10
2019-02-06T09:03:16.156Z,2.90
2019-02-06T09:05:45.593Z,3.30
2019-02-06T09:08:15.059Z,3.40
2019-02-06T09:10:44.982Z,3.40
2019-02-06T09:13:14.409Z,3.40
2019-02-06T09:15:44.697Z,3.60
2019-02-06T09:18:14.466Z,3.80
2019-02-06T09:20:43.930Z,4.00
2019-02-06T09:23:13.441Z,3.70
2019-02-06T09:25:43.022Z,3.90
2019-02-06T09:28:12.463Z,3.80
2019-02-06T09:30:41.861Z,3.80
2019-02-06T09:33:11.642Z,4.10
2019-02-06T09:35:41.228Z,3.90
2019-02-06T09:38:10.887Z,3.80
2019-02-06T09:40:40.541Z,3.60
2019-02-06T09:43:10.035Z,3.50
2019-02-06T09:45:39.815Z,3.20
2019-02-06T09:48:09.425Z,3.20
2019-02-06T09:50:39.229Z,3.30
2019-02-06T09:53:08.846Z,3.20
2019-02-06T09:55:38.497Z,3.30
2019-02-06T09:58:07.960Z,3.30
2019-02-06T10:00:39.896Z,3.20
2019-02-06T10:03:09.436Z,3.20
2019-02-06T10:05:38.887Z,3.30
2019-02-06T10:08:08.686Z,3.30
2019-02-06T10:10:38.229Z,3.40
2019-02-06T10:13:09.289Z,3.40
2019-02-06T10:15:39.402Z,3.40
2019-02-06T10:18:09.388Z,3.80
2019-02-06T10:20:54.495Z,3.80
2019-02-06T10:23:24.176Z,3.90
2019-02-06T10:25:54.053Z,3.90
2019-02-06T10:28:24.471Z,3.90
2019-02-06T10:30:54.473Z,3.60
2019-02-06T10:33:24.388Z,3.50
2019-02-06T10:35:53.787Z,3.50
2019-02-06T10:38:23.721Z,3.30
2019-02-06T10:40:53.170Z,3.30
2019-02-06T10:43:31.544Z,3.30
2019-02-06T10:45:54.283Z,3.20
2019-02-06T10:48:23.780Z,3.20
2019-02-06T10:50:54.100Z,3.20
2019-02-06T10:53:23.935Z,3.10
2019-02-06T10:55:53.422Z,3.20
2019-02-06T10:58:23.438Z,3.40
2019-02-06T11:00:55.843Z,3.40
2019-02-06T11:03:25.650Z,3.20
2019-02-06T11:05:55.148Z,3.40
2019-02-06T11:08:25.054Z,3.60
2019-02-06T11:10:54.506Z,3.80
2019-02-06T11:13:23.914Z,3.90
2019-02-06T11:15:53.685Z,4.20
2019-02-06T11:18:23.330Z,3.90
2019-02-06T11:20:53.332Z,3.90
2019-02-06T11:23:23.106Z,4.10
2019-02-06T11:25:52.548Z,4.20
2019-02-06T11:28:22.110Z,4.60
2019-02-06T11:30:51.751Z,4.60
2019-02-06T11:33:21.300Z,4.40
2019-02-06T11:35:50.727Z,5.00
2019-02-06T11:38:20.382Z,4.90
2019-02-06T11:40:49.939Z,4.50
2019-02-06T11:43:19.350Z,4.60
2019-02-06T11:45:49.454Z,4.40
2019-02-06T11:48:19.004Z,4.50
2019-02-06T11:50:48.644Z,4.30
2019-02-06T11:53:27.805Z,4.60
2019-02-06T11:55:57.842Z,4.50
2019-02-06T11:58:27.409Z,4.60
2019-02-06T12:01:15.521Z,4.60
2019-02-06T12:03:45.127Z,5.20
2019-02-06T12:06:14.740Z,6.40
2019-02-06T12:08:44.415Z,7.80
2019-02-06T12:11:13.860Z,8.00
2019-02-06T12:13:43.298Z,7.20
2019-02-06T12:16:13.118Z,7.90
2019-02-06T12:18:42.567Z,7.40
2019-02-06T12:21:12.620Z,7.00
2019-02-06T12:23:42.062Z,6.50
2019-02-06T12:26:11.900Z,6.70
2019-02-06T12:28:41.375Z,6.30
2019-02-06T12:31:11.356Z,5.90
2019-02-06T12:33:40.841Z,5.80
2019-02-06T12:36:10.819Z,5.90
2019-02-06T12:38:40.363Z,5.70
2019-02-06T12:41:10.138Z,5.60
2019-02-06T12:43:39.644Z,5.50
2019-02-06T12:46:09.395Z,5.40
2019-02-06T12:48:38.853Z,5.20
2019-02-06T12:51:08.306Z,5.20
2019-02-06T12:53:38.315Z,5.00
2019-02-06T12:56:07.773Z,5.00
2019-02-06T12:58:38.037Z,4.70
2019-02-06T13:01:08.083Z,4.70
2019-02-06T13:03:37.535Z,4.70
2019-02-06T13:06:07.131Z,4.70
2019-02-06T13:08:36.571Z,4.60
2019-02-06T13:11:06.043Z,4.70
2019-02-06T13:13:35.987Z,4.90
2019-02-06T13:16:05.548Z,5.00
2019-02-06T13:18:35.292Z,5.10
2019-02-06T13:21:05.204Z,5.10
2019-02-06T13:23:34.763Z,5.20
2019-02-06T13:26:04.454Z,5.20
2019-02-06T13:28:34.178Z,5.20
2019-02-06T13:31:03.695Z,5.40
2019-02-06T13:33:33.583Z,5.50
2019-02-06T13:36:04.807Z,5.80
2019-02-06T13:38:35.108Z,5.60
2019-02-06T13:41:05.371Z,5.00
2019-02-06T13:43:34.832Z,5.00
2019-02-06T13:46:05.038Z,5.00
2019-02-06T13:48:34.729Z,4.90
2019-02-06T13:51:15.610Z,4.70
2019-02-06T13:53:36.156Z,4.60
2019-02-06T13:56:06.228Z,4.50
2019-02-06T13:58:35.819Z,4.30
2019-02-06T14:01:06.562Z,4.20
2019-02-06T14:03:36.041Z,4.30
2019-02-06T14:06:06.175Z,4.30
2019-02-06T14:08:35.764Z,4.20
2019-02-06T14:11:05.600Z,4.40
2019-02-06T14:13:35.090Z,4.20
2019-02-06T14:16:07.193Z,4.10
2019-02-06T14:18:37.105Z,4.00
2019-02-06T14:21:07.363Z,3.90
2019-02-06T14:24:18.903Z,3.90
2019-02-06T14:27:35.350Z,3.90
2019-02-06T14:30:40.858Z,3.70
2019-02-06T14:33:48.514Z,3.80
2019-02-06T14:36:37.724Z,3.70
2019-02-06T14:39:28.619Z,3.70
2019-02-06T14:42:41.792Z,3.70
2019-02-06T14:45:49.061Z,3.60
2019-02-06T14:48:41.124Z,3.60
2019-02-06T14:51:50.398Z,3.60
2019-02-06T14:54:46.798Z,3.60
2019-02-06T14:57:36.765Z,3.60
2019-02-06T15:00:31.265Z,3.50
2019-02-06T15:03:35.648Z,3.40
2019-02-06T15:06:32.353Z,3.50
2019-02-06T15:09:46.132Z,3.50
2019-02-06T15:12:46.191Z,3.50
2019-02-06T15:15:41.932Z,3.50
2019-02-06T15:18:48.921Z,3.40
2019-02-06T15:21:48.229Z,3.40
2019-02-06T15:24:39.039Z,3.30
2019-02-06T15:27:52.132Z,3.30
2019-02-06T15:31:05.387Z,3.30
2019-02-06T15:33:48.791Z,3.20
2019-02-06T15:37:08.846Z,3.40
2019-02-06T15:40:25.638Z,3.40
2019-02-06T15:43:36.461Z,3.30
2019-02-06T15:46:59.049Z,3.20
2019-02-06T15:50:00.702Z,3.30
2019-02-06T15:52:58.485Z,3.10
2019-02-06T15:55:53.102Z,2.90
2019-02-06T15:59:18.665Z,3.00
2019-02-06T16:02:30.246Z,2.90
2019-02-06T16:05:57.063Z,2.80
2019-02-06T16:09:32.020Z,2.80
2019-02-06T16:12:44.408Z,2.70
2019-02-06T16:15:43.109Z,2.70
2019-02-06T16:18:36.727Z,2.60
2019-02-06T16:21:52.808Z,2.60
2019-02-06T16:24:32.566Z,2.50
2019-02-06T16:27:31.214Z,2.50
2019-02-06T16:30:42.087Z,2.50
2019-02-06T16:34:07.964Z,2.50
2019-02-06T16:37:12.765Z,2.60
2019-02-06T16:40:07.012Z,2.60
2019-02-06T16:43:17.631Z,2.60
2019-02-06T16:46:28.581Z,2.30
2019-02-06T16:49:39.931Z,2.30
2019-02-06T16:52:45.746Z,2.20
2019-02-06T16:55:55.122Z,2.00
2019-02-06T16:58:56.624Z,1.80
2019-02-06T17:02:06.165Z,1.70
2019-02-06T17:05:18.994Z,1.50
2019-02-06T17:08:35.789Z,1.30
2019-02-06T17:12:04.466Z,1.20
2019-02-06T17:14:59.396Z,1.10
2019-02-06T17:17:36.274Z,0.90
2019-02-06T17:20:49.281Z,0.70
2019-02-06T17:23:50.613Z,0.60
2019-02-06T17:27:04.486Z,0.50
2019-02-06T17:30:09.688Z,0.20
2019-02-06T17:33:29.486Z,0.10
2019-02-06T17:36:16.656Z,-0.10
2019-02-06T17:39:39.741Z,-0.20
2019-02-06T17:42:41.912Z,-0.20
2019-02-06T17:45:48.604Z,-0.10
2019-02-06T17:49:08.379Z,-0.20
2019-02-06T17:52:35.556Z,-0.20
2019-02-06T17:55:20.243Z,-0.30
2019-02-06T17:57:51.702Z,-0.30
2019-02-06T18:01:01.527Z,-0.40
2019-02-06T18:03:38.249Z,-0.50
2019-02-06T18:06:07.829Z,-0.50
2019-02-06T18:08:40.090Z,-0.60
2019-02-06T18:11:09.651Z,-0.60
2019-02-06T18:13:39.303Z,-0.70
2019-02-06T18:16:09.228Z,-0.70
2019-02-06T18:18:38.786Z,-0.70
2019-02-06T18:21:09.445Z,-0.70
2019-02-06T18:23:39.097Z,-0.60
2019-02-06T18:26:08.880Z,-0.60
2019-02-06T18:28:40.649Z,-0.60
2019-02-06T18:31:10.583Z,-0.60
2019-02-06T18:33:41.570Z,-0.60
2019-02-06T18:36:11.311Z,-0.50
2019-02-06T18:38:46.640Z,-0.50
2019-02-06T18:41:13.394Z,-0.40
2019-02-06T18:43:43.769Z,-0.50
2019-02-06T18:46:13.557Z,-0.40
2019-02-06T18:48:43.003Z,-0.40
2019-02-06T18:51:12.671Z,-0.40
2019-02-06T18:53:42.134Z,-0.50
2019-02-06T18:56:11.680Z,-0.50
2019-02-06T18:58:41.981Z,-0.60
2019-02-06T19:01:11.757Z,-0.60
2019-02-06T19:03:44.799Z,-0.70
2019-02-06T19:06:14.711Z,-0.60
2019-02-06T19:08:44.382Z,-0.70
2019-02-06T19:11:14.100Z,-0.70
2019-02-06T19:13:43.533Z,-0.80
2019-02-06T19:16:14.087Z,-0.70
2019-02-06T19:18:44.202Z,-0.70
2019-02-06T19:21:14.061Z,-0.80
2019-02-06T19:23:43.604Z,-0.80
2019-02-06T19:26:13.156Z,-0.80
2019-02-06T19:28:42.937Z,-0.80
2019-02-06T19:31:14.801Z,-1.00
2019-02-06T19:33:45.752Z,-1.00
2019-02-06T19:36:15.457Z,-1.00
2019-02-06T19:38:46.181Z,-1.10
2019-02-06T19:41:15.994Z,-1.20
2019-02-06T19:43:45.513Z,-1.30
2019-02-06T19:46:16.190Z,-1.40
2019-02-06T19:48:45.741Z,-1.40
2019-02-06T19:51:15.510Z,-1.50
2019-02-06T19:53:45.532Z,-1.50
2019-02-06T19:56:15.182Z,-1.50
2019-02-06T19:58:44.815Z,-1.40
2019-02-06T20:01:14.454Z,-1.50
2019-02-06T20:03:43.927Z,-1.60
2019-02-06T20:06:28.785Z,-1.80
2019-02-06T20:09:01.488Z,-1.90
2019-02-06T20:11:31.115Z,-2.00
2019-02-06T20:14:00.582Z,-2.00
2019-02-06T20:16:30.281Z,-2.00
2019-02-06T20:18:59.732Z,-2.10
2019-02-06T20:21:29.435Z,-2.20
2019-02-06T20:23:59.355Z,-2.20
2019-02-06T20:26:31.416Z,-2.20
2019-02-06T20:29:00.178Z,-2.30
2019-02-06T20:31:29.683Z,-2.20
2019-02-06T20:33:59.131Z,-2.30
2019-02-06T20:36:28.805Z,-2.20
2019-02-06T20:38:58.261Z,-2.20
2019-02-06T20:41:28.349Z,-2.30
2019-02-06T20:43:57.941Z,-2.40
2019-02-06T20:46:27.740Z,-2.40
2019-02-06T20:48:57.301Z,-2.40
2019-02-06T20:51:26.954Z,-2.40
2019-02-06T20:53:56.444Z,-2.40
2019-02-06T20:56:25.930Z,-2.50
2019-02-06T20:58:55.500Z,-2.40
2019-02-06T21:01:25.204Z,-2.40
2019-02-06T21:03:54.739Z,-2.40
2019-02-06T21:06:24.365Z,-2.40
2019-02-06T21:08:53.973Z,-2.40
2019-02-06T21:11:23.889Z,-2.50
2019-02-06T21:13:53.783Z,-2.50
2019-02-06T21:16:23.530Z,-2.40
2019-02-06T21:18:52.936Z,-2.50
2019-02-06T21:21:22.705Z,-2.60
2019-02-06T21:23:52.174Z,-2.50
2019-02-06T21:26:21.663Z,-2.40
2019-02-06T21:28:51.575Z,-2.40
2019-02-06T21:31:21.238Z,-2.50
2019-02-06T21:33:50.832Z,-2.50
2019-02-06T21:36:20.315Z,-2.50
2019-02-06T21:38:50.204Z,-2.50
2019-02-06T21:41:20.422Z,-2.50
2019-02-06T21:43:49.847Z,-2.50
2019-02-06T21:46:19.598Z,-2.60
2019-02-06T21:48:49.060Z,-2.70
2019-02-06T21:51:18.588Z,-2.70
2019-02-06T21:53:48.235Z,-2.70
2019-02-06T21:56:17.817Z,-2.70
2019-02-06T21:58:47.371Z,-2.80
2019-02-06T22:01:17.095Z,-2.90
2019-02-06T22:03:46.644Z,-2.90
2019-02-06T22:06:16.439Z,-2.80
2019-02-06T22:08:46.060Z,-2.90
2019-02-06T22:11:15.960Z,-2.80
2019-02-06T22:13:54.855Z,-3.00
2019-02-06T22:16:16.625Z,-2.90
2019-02-06T22:18:46.100Z,-3.00
2019-02-06T22:21:15.702Z,-3.20
2019-02-06T22:23:45.176Z,-3.20
2019-02-06T22:26:15.069Z,-3.30
2019-02-06T22:28:44.552Z,-3.20
2019-02-06T22:31:14.359Z,-3.30
2019-02-06T22:33:43.842Z,-3.20
2019-02-06T22:36:13.302Z,-3.20
2019-02-06T22:38:42.896Z,-3.20
2019-02-06T22:41:12.550Z,-3.10
2019-02-06T22:43:42.058Z,-3.00
2019-02-06T22:46:11.841Z,-3.10
2019-02-06T22:48:41.389Z,-3.00
2019-02-06T22:51:11.013Z,-2.90
2019-02-06T22:53:40.496Z,-2.80
2019-02-06T22:56:09.994Z,-2.80
2019-02-06T22:58:39.545Z,-2.60
2019-02-06T23:01:45.432Z,-2.60
2019-02-06T23:04:14.880Z,-2.60
2019-02-06T23:06:44.474Z,-2.50
2019-02-06T23:09:14.052Z,-2.50
2019-02-06T23:11:43.705Z,-2.50
2019-02-06T23:14:17.456Z,-2.60
2019-02-06T23:16:45.402Z,-2.60
2019-02-06T23:19:15.693Z,-2.60
2019-02-06T23:21:45.113Z,-2.60
2019-02-06T23:24:14.771Z,-2.50
2019-02-06T23:26:44.317Z,-2.60
2019-02-06T23:29:15.346Z,-2.50
2019-02-06T23:31:45.106Z,-2.50
2019-02-06T23:34:15.935Z,-2.50
2019-02-06T23:36:45.941Z,-2.40
2019-02-06T23:39:17.415Z,-2.40
2019-02-06T23:41:47.151Z,-2.50
2019-02-06T23:44:28.349Z,-2.30
2019-02-06T23:46:48.782Z,-2.30
2019-02-06T23:49:18.290Z,-2.40
2019-02-06T23:51:47.856Z,-2.40
2019-02-06T23:54:17.475Z,-2.30
2019-02-06T23:56:47.025Z,-2.20
2019-02-06T23:59:16.809Z,-2.20
